Nyngan, Australia
Current Conditions -  °F | °C
As of 8:30 PM on Wednesday 22 Oct 2014 (Local Time) from YSDU Reporting Station
Clear Clear  
Wind Chill: 72°   Ceiling: Unl
Heat Index: 72°   Visibility: 6mi
Dew Point: 54°   Wind: 0mph
Humidity: 53%   Direction: NA
Pressure: 30.06"   Gusts: NA
Location:  31.56°S, 147.19°E
Report Text: YSDU 220930Z AUTO 00000KT 9999 // NCD 22/12 Q1018
Loading
Personal Weather Stations






























Interactive Weather Map
Tropical Storm Tracking
New forecast layout! Learn more

10-Day Weather Forecast

Advertisements
Track Severe Weather on mobile